createdAt,value
2019-03-02T00:00:50.362Z,92.3
2019-03-02T00:02:49.584Z,94.1
2019-03-02T00:04:50.174Z,91.4
2019-03-02T00:06:49.444Z,96.9
2019-03-02T00:08:49.701Z,93.9
2019-03-02T00:10:49.880Z,98.9
2019-03-02T00:12:50.082Z,98.9
2019-03-02T00:14:50.668Z,94.3
2019-03-02T00:16:50.244Z,93.0
2019-03-02T00:18:49.620Z,93.0
2019-03-02T00:20:55.366Z,90.2
2019-03-02T00:22:49.565Z,90.2
2019-03-02T00:24:49.703Z,89.2
2019-03-02T00:26:50.007Z,89.4
2019-03-02T00:28:50.187Z,90.4
2019-03-02T00:30:50.435Z,90.4
2019-03-02T00:32:49.611Z,91.0
2019-03-02T00:34:50.260Z,89.8
2019-03-02T00:36:50.938Z,85.4
2019-03-02T00:38:49.581Z,85.4
2019-03-02T00:40:49.840Z,90.6
2019-03-02T00:42:51.866Z,85.9
2019-03-02T00:44:50.032Z,85.9
2019-03-02T00:46:50.385Z,91.0
2019-03-02T00:48:49.627Z,88.3
2019-03-02T00:50:49.768Z,88.3
2019-03-02T00:52:50.002Z,90.3
2019-03-02T00:54:58.062Z,96.7
2019-03-02T00:56:49.913Z,91.8
2019-03-02T00:58:50.155Z,91.3
2019-03-02T01:00:53.576Z,91.3
2019-03-02T01:02:50.196Z,89.0
2019-03-02T01:04:49.865Z,87.2
2019-03-02T01:06:50.288Z,87.2
2019-03-02T01:08:49.467Z,90.3
2019-03-02T01:10:49.675Z,90.3
2019-03-02T01:12:49.996Z,86.5
2019-03-02T01:14:50.265Z,93.9
2019-03-02T01:16:51.631Z,88.4
2019-03-02T01:18:49.957Z,89.4
2019-03-02T01:20:50.250Z,89.4
2019-03-02T01:22:51.752Z,92.4
2019-03-02T01:24:49.976Z,92.6
2019-03-02T01:26:50.254Z,89.0
2019-03-02T01:28:49.452Z,89.9
2019-03-02T01:30:49.677Z,89.9
2019-03-02T01:32:52.486Z,84.9
2019-03-02T01:34:50.143Z,87.0
2019-03-02T01:36:50.411Z,87.0
2019-03-02T01:38:50.569Z,87.0
2019-03-02T01:40:49.990Z,91.4
2019-03-02T01:42:50.353Z,90.3
2019-03-02T01:44:51.621Z,91.1
2019-03-02T01:46:49.843Z,91.6
2019-03-02T01:48:50.133Z,91.6
2019-03-02T01:50:50.417Z,87.5
2019-03-02T01:52:49.595Z,96.7
2019-03-02T01:54:52.439Z,94.3
2019-03-02T01:56:49.884Z,88.2
2019-03-02T01:58:50.158Z,88.2
2019-03-02T02:00:50.009Z,91.9
2019-03-02T02:02:50.220Z,86.0
2019-03-02T02:04:49.862Z,85.8
2019-03-02T02:06:50.209Z,81.3
2019-03-02T02:08:49.509Z,81.3
2019-03-02T02:10:49.676Z,83.0
2019-03-02T02:12:49.848Z,83.0
2019-03-02T02:14:50.861Z,72.1
2019-03-02T02:16:49.594Z,72.1
2019-03-02T02:18:49.973Z,66.4
2019-03-02T02:20:51.437Z,61.3
2019-03-02T02:22:49.859Z,64.9
2019-03-02T02:24:50.288Z,64.3
2019-03-02T02:26:49.805Z,64.3
2019-03-02T02:28:50.102Z,63.8
2019-03-02T02:30:49.604Z,57.3
2019-03-02T02:32:49.842Z,61.0
2019-03-02T02:34:49.572Z,54.9
2019-03-02T02:36:52.943Z,54.9
2019-03-02T02:38:54.407Z,56.3
2019-03-02T02:40:49.994Z,58.6
2019-03-02T02:42:50.307Z,50.9
2019-03-02T02:44:49.686Z,50.9
2019-03-02T02:46:50.049Z,52.6
2019-03-02T02:48:50.241Z,51.9
2019-03-02T02:50:49.580Z,50.8
2019-03-02T02:52:49.885Z,50.8
2019-03-02T02:54:50.166Z,52.0
2019-03-02T02:56:54.050Z,53.5
2019-03-02T02:58:55.247Z,51.3
2019-03-02T03:00:54.937Z,54.5
2019-03-02T03:02:50.013Z,53.7
2019-03-02T03:04:49.614Z,53.7
2019-03-02T03:06:49.844Z,55.0
2019-03-02T03:08:49.661Z,55.0
2019-03-02T03:10:49.860Z,54.8
2019-03-02T03:12:50.194Z,57.8
2019-03-02T03:14:54.061Z,57.8
2019-03-02T03:16:53.916Z,60.0
2019-03-02T03:18:52.092Z,57.6
2019-03-02T03:20:50.656Z,55.3
2019-03-02T03:22:50.031Z,60.3
2019-03-02T03:24:50.308Z,60.3
2019-03-02T03:26:49.752Z,57.5
2019-03-02T03:28:50.063Z,57.5
2019-03-02T03:30:50.209Z,60.7
2019-03-02T03:32:55.667Z,60.7
2019-03-02T03:34:50.033Z,59.1
2019-03-02T03:36:49.540Z,56.9
2019-03-02T03:38:49.733Z,54.5
2019-03-02T03:40:49.909Z,56.1
2019-03-02T03:42:50.104Z,56.1
2019-03-02T03:44:50.289Z,52.8
2019-03-02T03:46:49.733Z,55.8
2019-03-02T03:48:51.213Z,57.8
2019-03-02T03:50:52.281Z,57.8
2019-03-02T03:52:50.449Z,53.7
2019-03-02T03:54:49.940Z,56.0
2019-03-02T03:56:50.364Z,53.6
2019-03-02T03:58:49.577Z,53.4
2019-03-02T04:00:49.817Z,55.1
2019-03-02T04:02:50.159Z,57.3
2019-03-02T04:04:49.938Z,57.3
2019-03-02T04:06:50.439Z,54.1
2019-03-02T04:08:49.610Z,54.4
2019-03-02T04:10:49.835Z,54.4
2019-03-02T04:12:50.083Z,52.8
2019-03-02T04:14:50.418Z,57.6
2019-03-02T04:16:49.732Z,58.3
2019-03-02T04:18:54.627Z,54.3
2019-03-02T04:20:49.794Z,54.3
2019-03-02T04:22:50.136Z,53.8
2019-03-02T04:24:50.425Z,53.8
2019-03-02T04:26:49.800Z,53.6
2019-03-02T04:28:49.993Z,56.4
2019-03-02T04:30:50.277Z,52.5
2019-03-02T04:32:49.457Z,52.5
2019-03-02T04:34:50.047Z,53.9
2019-03-02T04:36:49.782Z,55.3
2019-03-02T04:38:50.048Z,59.0
2019-03-02T04:40:50.293Z,53.1
2019-03-02T04:42:50.090Z,53.1
2019-03-02T04:44:49.716Z,54.4
2019-03-02T04:46:51.269Z,58.6
2019-03-02T04:48:50.211Z,55.3
2019-03-02T04:50:50.379Z,55.3
2019-03-02T04:52:50.808Z,57.2
2019-03-02T04:54:49.999Z,55.0
2019-03-02T04:56:50.360Z,55.0
2019-03-02T04:58:49.519Z,56.6
2019-03-02T05:00:49.797Z,56.6
2019-03-02T05:02:51.557Z,59.3
2019-03-02T05:04:49.555Z,56.6
2019-03-02T05:06:50.519Z,58.7
2019-03-02T05:08:49.817Z,58.7
2019-03-02T05:10:50.023Z,57.3
2019-03-02T05:12:52.956Z,59.0
2019-03-02T05:14:50.046Z,59.0
2019-03-02T05:16:50.417Z,58.7
2019-03-02T05:18:53.109Z,55.1
2019-03-02T05:20:49.805Z,55.1
2019-03-02T05:22:50.661Z,54.6
2019-03-02T05:24:50.121Z,54.6
2019-03-02T05:26:50.119Z,58.1
2019-03-02T05:28:49.628Z,58.1
2019-03-02T05:30:49.820Z,55.1
2019-03-02T05:32:51.211Z,54.7
2019-03-02T05:34:50.099Z,58.8
2019-03-02T05:36:49.520Z,58.8
2019-03-02T05:38:49.724Z,56.8
2019-03-02T05:40:49.859Z,55.6
2019-03-02T05:42:52.474Z,55.9
2019-03-02T05:44:49.793Z,56.2
2019-03-02T05:46:50.120Z,54.3
2019-03-02T05:48:50.246Z,54.3
2019-03-02T05:50:49.644Z,54.3
2019-03-02T05:52:50.691Z,52.9
2019-03-02T05:54:50.414Z,52.9
2019-03-02T05:56:49.785Z,55.3
2019-03-02T05:58:51.084Z,55.3
2019-03-02T06:00:50.097Z,52.0
2019-03-02T06:02:50.399Z,50.4
2019-03-02T06:04:49.949Z,51.2
2019-03-02T06:06:50.605Z,47.5
2019-03-02T06:08:49.608Z,47.5
2019-03-02T06:10:49.830Z,49.0
2019-03-02T06:12:51.450Z,49.5
2019-03-02T06:14:50.172Z,47.2
2019-03-02T06:16:49.576Z,47.2
2019-03-02T06:18:49.699Z,50.1
2019-03-02T06:20:49.895Z,50.0
2019-03-02T06:22:52.287Z,50.6
2019-03-02T06:24:49.751Z,49.5
2019-03-02T06:26:50.169Z,49.5
2019-03-02T06:28:50.298Z,50.3
2019-03-02T06:30:49.561Z,46.3
2019-03-02T06:32:49.904Z,44.6
2019-03-02T06:34:51.811Z,44.6
2019-03-02T06:36:49.756Z,46.6
2019-03-02T06:38:49.954Z,45.1
2019-03-02T06:40:50.178Z,47.5
2019-03-02T06:42:49.494Z,45.0
2019-03-02T06:44:49.687Z,43.9
2019-03-02T06:46:50.055Z,43.9
2019-03-02T06:48:50.295Z,45.2
2019-03-02T06:50:49.505Z,44.4
2019-03-02T06:52:49.651Z,44.2
2019-03-02T06:54:49.961Z,42.9
2019-03-02T06:56:57.480Z,42.9
2019-03-02T06:58:50.410Z,45.6
2019-03-02T07:00:49.707Z,50.1
2019-03-02T07:02:50.008Z,41.3
2019-03-02T07:04:49.617Z,42.5
2019-03-02T07:06:49.935Z,42.5
2019-03-02T07:08:50.112Z,44.0
2019-03-02T07:10:50.305Z,43.6
2019-03-02T07:12:49.584Z,43.8
2019-03-02T07:14:51.607Z,43.8
2019-03-02T07:16:51.964Z,44.3
2019-03-02T07:18:50.237Z,43.6
2019-03-02T07:20:49.452Z,44.1
2019-03-02T07:22:52.331Z,42.2
2019-03-02T07:24:50.376Z,42.2
2019-03-02T07:26:51.519Z,46.1
2019-03-02T07:28:49.463Z,40.9
2019-03-02T07:30:49.715Z,40.9
2019-03-02T07:32:49.954Z,40.5
2019-03-02T07:34:49.605Z,40.5
2019-03-02T07:36:49.872Z,37.6
2019-03-02T07:38:52.924Z,39.7
2019-03-02T07:40:50.437Z,38.1
2019-03-02T07:42:49.734Z,38.1
2019-03-02T07:44:49.989Z,37.9
2019-03-02T07:46:50.402Z,34.9
2019-03-02T07:48:49.574Z,35.4
2019-03-02T07:50:49.742Z,34.4
2019-03-02T07:52:52.857Z,34.4
2019-03-02T07:54:57.967Z,34.5
2019-03-02T07:56:49.966Z,35.7
2019-03-02T07:58:51.804Z,35.4
2019-03-02T08:00:49.851Z,37.5
2019-03-02T08:02:50.172Z,37.5
2019-03-02T08:04:49.739Z,34.3
2019-03-02T08:06:50.193Z,32.2
2019-03-02T08:08:49.989Z,33.0
2019-03-02T08:10:50.230Z,33.0
2019-03-02T08:12:50.436Z,34.1
2019-03-02T08:14:49.691Z,36.2
2019-03-02T08:16:50.069Z,36.2
2019-03-02T08:18:50.363Z,32.2
2019-03-02T08:20:49.562Z,29.7
2019-03-02T08:22:49.738Z,29.7
2019-03-02T08:24:49.921Z,31.1
2019-03-02T08:26:50.317Z,30.8
2019-03-02T08:28:50.974Z,30.6
2019-03-02T08:30:50.219Z,30.6
2019-03-02T08:32:49.521Z,29.5
2019-03-02T08:34:50.087Z,29.9
2019-03-02T08:36:50.229Z,29.9
2019-03-02T08:38:49.554Z,29.0
2019-03-02T08:40:49.835Z,29.0
2019-03-02T08:42:49.984Z,29.5
2019-03-02T08:44:50.690Z,29.5
2019-03-02T08:46:50.247Z,30.7
2019-03-02T08:48:49.559Z,30.7
2019-03-02T08:50:52.767Z,29.2
2019-03-02T08:52:50.343Z,30.9
2019-03-02T08:54:49.573Z,31.3
2019-03-02T08:56:49.954Z,30.8
2019-03-02T08:58:50.077Z,30.8
2019-03-02T09:00:51.525Z,29.9
2019-03-02T09:02:49.802Z,34.1
2019-03-02T09:04:50.734Z,26.6
2019-03-02T09:06:49.893Z,27.7
2019-03-02T09:08:50.178Z,29.5
2019-03-02T09:10:50.430Z,29.5
2019-03-02T09:12:49.607Z,29.3
2019-03-02T09:14:50.088Z,27.3
2019-03-02T09:16:49.590Z,27.8
2019-03-02T09:18:49.896Z,26.7
2019-03-02T09:20:50.060Z,26.7
2019-03-02T09:22:50.257Z,26.4
2019-03-02T09:24:49.988Z,29.8
2019-03-02T09:26:50.405Z,27.5
2019-03-02T09:28:51.876Z,26.8
2019-03-02T09:30:49.547Z,26.8
2019-03-02T09:32:50.835Z,26.3
2019-03-02T09:34:49.999Z,25.0
2019-03-02T09:36:50.273Z,25.7
2019-03-02T09:38:50.127Z,25.7
2019-03-02T09:40:49.957Z,28.1
2019-03-02T09:42:49.481Z,24.8
2019-03-02T09:44:50.079Z,25.2
2019-03-02T09:46:49.470Z,25.0
2019-03-02T09:48:49.728Z,25.0
2019-03-02T09:50:49.904Z,25.3
2019-03-02T09:52:50.020Z,27.0
2019-03-02T09:54:50.319Z,27.0
2019-03-02T09:56:49.753Z,25.6
2019-03-02T09:58:49.901Z,25.6
2019-03-02T10:00:50.019Z,24.9
2019-03-02T10:02:51.439Z,29.6
2019-03-02T10:04:50.196Z,24.9
2019-03-02T10:06:50.429Z,25.2
2019-03-02T10:08:50.106Z,25.2
2019-03-02T10:10:49.454Z,26.9
2019-03-02T10:12:51.368Z,26.7
2019-03-02T10:14:49.562Z,31.5
2019-03-02T10:16:49.868Z,31.5
2019-03-02T10:18:50.930Z,29.7
2019-03-02T10:20:50.262Z,30.0
2019-03-02T10:22:49.451Z,29.0
2019-03-02T10:24:49.885Z,29.6
2019-03-02T10:26:50.394Z,29.6
2019-03-02T10:28:49.644Z,31.2
2019-03-02T10:30:49.799Z,32.3
2019-03-02T10:32:51.763Z,32.4
2019-03-02T10:34:50.015Z,32.4
2019-03-02T10:36:50.341Z,29.6
2019-03-02T10:38:51.798Z,31.3
2019-03-02T10:40:49.895Z,34.4
2019-03-02T10:42:50.092Z,33.8
2019-03-02T10:44:53.597Z,33.8
2019-03-02T10:46:50.200Z,33.7
2019-03-02T10:48:49.454Z,31.9
2019-03-02T10:50:49.631Z,33.6
2019-03-02T10:52:50.024Z,30.2
2019-03-02T10:54:50.349Z,30.2
2019-03-02T10:56:49.730Z,32.5
2019-03-02T10:58:49.912Z,34.8
2019-03-02T11:00:50.152Z,36.9
2019-03-02T11:02:51.892Z,36.4
2019-03-02T11:04:49.762Z,36.4
2019-03-02T11:06:49.711Z,36.0
2019-03-02T11:08:50.246Z,38.0
2019-03-02T11:10:52.157Z,34.1
2019-03-02T11:12:49.597Z,36.0
2019-03-02T11:14:49.726Z,37.9
2019-03-02T11:16:50.026Z,37.9
2019-03-02T11:18:49.757Z,37.7
2019-03-02T11:20:49.446Z,39.8
2019-03-02T11:22:49.611Z,39.7
2019-03-02T11:24:50.228Z,39.7
2019-03-02T11:26:49.593Z,41.0
2019-03-02T11:28:49.982Z,39.6
2019-03-02T11:30:50.091Z,35.8
2019-03-02T11:32:52.562Z,35.8
2019-03-02T11:34:49.587Z,36.9
2019-03-02T11:36:50.365Z,38.6
2019-03-02T11:38:49.960Z,37.5
2019-03-02T11:40:49.630Z,42.0
2019-03-02T11:42:49.885Z,41.3
2019-03-02T11:44:50.106Z,41.3
2019-03-02T11:46:49.489Z,40.1
2019-03-02T11:48:56.701Z,39.8
2019-03-02T11:50:50.821Z,40.3
2019-03-02T11:52:50.515Z,40.3
2019-03-02T11:54:49.746Z,39.4
2019-03-02T11:56:50.028Z,37.6
2019-03-02T11:58:50.281Z,40.8
2019-03-02T12:00:50.034Z,40.8
2019-03-02T12:02:50.107Z,41.8
2019-03-02T12:04:52.168Z,41.8
2019-03-02T12:06:49.543Z,43.6
2019-03-02T12:08:49.795Z,45.8
2019-03-02T12:10:50.013Z,46.8
2019-03-02T12:12:51.204Z,46.8
2019-03-02T12:14:49.754Z,44.9
2019-03-02T12:16:50.106Z,42.5
2019-03-02T12:18:51.004Z,44.7
2019-03-02T12:20:49.765Z,41.7
2019-03-02T12:22:50.041Z,41.7
2019-03-02T12:24:50.235Z,42.6
2019-03-02T12:26:49.645Z,35.5
2019-03-02T12:28:49.825Z,39.9
2019-03-02T12:30:50.063Z,36.0
2019-03-02T12:32:50.401Z,36.0
2019-03-02T12:34:49.898Z,37.1
2019-03-02T12:36:53.111Z,38.4
2019-03-02T12:38:49.720Z,39.7
2019-03-02T12:40:49.900Z,35.8
2019-03-02T12:42:50.092Z,35.8
2019-03-02T12:44:50.323Z,37.5
2019-03-02T12:46:51.749Z,38.6
2019-03-02T12:48:49.595Z,40.1
2019-03-02T12:50:49.770Z,39.0
2019-03-02T12:52:51.663Z,39.0
2019-03-02T12:54:49.912Z,41.9
2019-03-02T12:56:50.311Z,37.6
2019-03-02T12:58:49.955Z,39.6
2019-03-02T13:00:50.228Z,37.8
2019-03-02T13:02:51.208Z,37.8
2019-03-02T13:04:51.320Z,39.2
2019-03-02T13:06:50.008Z,38.7
2019-03-02T13:08:50.131Z,38.7
2019-03-02T13:10:53.328Z,38.7
2019-03-02T13:12:49.742Z,40.5
2019-03-02T13:14:50.274Z,44.5
2019-03-02T13:16:50.072Z,40.1
2019-03-02T13:18:51.148Z,39.9
2019-03-02T13:20:49.649Z,39.9
2019-03-02T13:22:50.274Z,38.9
2019-03-02T13:24:53.640Z,37.8
2019-03-02T13:26:49.725Z,38.8
2019-03-02T13:28:50.043Z,38.8
2019-03-02T13:30:50.214Z,38.8
2019-03-02T13:32:52.413Z,38.7
2019-03-02T13:34:49.537Z,37.3
2019-03-02T13:36:49.818Z,36.5
2019-03-02T13:38:50.037Z,36.5
2019-03-02T13:40:49.789Z,35.2
2019-03-02T13:42:50.920Z,40.5
2019-03-02T13:44:49.499Z,37.6
2019-03-02T13:46:49.486Z,35.0
2019-03-02T13:48:50.308Z,35.0
2019-03-02T13:50:53.610Z,35.3
2019-03-02T13:52:49.946Z,37.3
2019-03-02T13:54:49.483Z,36.2
2019-03-02T13:56:49.843Z,35.8
2019-03-02T13:58:50.984Z,35.8
2019-03-02T14:00:49.759Z,34.8
2019-03-02T14:02:50.144Z,36.0
2019-03-02T14:04:50.294Z,34.2
2019-03-02T14:06:50.863Z,34.2
2019-03-02T14:08:50.116Z,34.7
2019-03-02T14:10:49.567Z,33.8
2019-03-02T14:12:50.743Z,33.9
2019-03-02T14:14:50.397Z,35.5
2019-03-02T14:16:55.191Z,35.5
2019-03-02T14:18:49.628Z,34.1
2019-03-02T14:20:49.610Z,33.0
2019-03-02T14:22:52.503Z,33.0
2019-03-02T14:24:49.462Z,34.1
2019-03-02T14:26:49.733Z,35.4
2019-03-02T14:28:49.961Z,35.4
2019-03-02T14:30:52.343Z,35.1
2019-03-02T14:32:51.892Z,33.2
2019-03-02T14:34:50.056Z,33.2
2019-03-02T14:36:50.040Z,35.1
2019-03-02T14:38:50.305Z,35.2
2019-03-02T14:40:51.170Z,36.5
2019-03-02T14:42:49.816Z,38.6
2019-03-02T14:44:49.964Z,37.9
2019-03-02T14:46:50.320Z,37.9
2019-03-02T14:48:50.567Z,37.2
2019-03-02T14:50:49.969Z,35.8
2019-03-02T14:52:50.218Z,37.8
2019-03-02T14:54:53.091Z,37.8
2019-03-02T14:56:49.902Z,38.0
2019-03-02T14:58:50.198Z,40.1
2019-03-02T15:00:49.483Z,40.6
2019-03-02T15:02:52.384Z,37.9
2019-03-02T15:04:50.055Z,38.1
2019-03-02T15:06:50.425Z,38.1
2019-03-02T15:08:50.292Z,38.1
2019-03-02T15:10:49.496Z,39.0
2019-03-02T15:12:52.326Z,36.4
2019-03-02T15:14:50.133Z,36.4
2019-03-02T15:16:49.464Z,35.6
2019-03-02T15:18:49.623Z,36.6
2019-03-02T15:20:50.202Z,33.8
2019-03-02T15:22:50.330Z,33.8
2019-03-02T15:24:52.936Z,33.3
2019-03-02T15:26:50.123Z,34.8
2019-03-02T15:28:49.675Z,35.3
2019-03-02T15:30:49.928Z,32.9
2019-03-02T15:32:53.156Z,33.7
2019-03-02T15:34:50.086Z,33.7
2019-03-02T15:36:50.131Z,31.8
2019-03-02T15:38:50.378Z,33.3
2019-03-02T15:40:50.343Z,35.7
2019-03-02T15:42:50.271Z,32.6
2019-03-02T15:44:49.720Z,32.6
2019-03-02T15:46:50.078Z,33.8
2019-03-02T15:48:50.347Z,32.5
2019-03-02T15:50:51.235Z,31.9
2019-03-02T15:52:49.558Z,32.7
2019-03-02T15:54:49.668Z,32.7
2019-03-02T15:56:50.039Z,32.5
2019-03-02T15:58:50.169Z,35.1
2019-03-02T16:00:50.521Z,33.4
2019-03-02T16:02:50.431Z,33.4
2019-03-02T16:04:49.959Z,34.0
2019-03-02T16:06:50.229Z,35.7
2019-03-02T16:08:52.311Z,33.0
2019-03-02T16:10:51.294Z,36.8
2019-03-02T16:12:49.609Z,36.8
2019-03-02T16:14:49.821Z,35.8
2019-03-02T16:16:50.109Z,35.7
2019-03-02T16:18:53.170Z,34.7
2019-03-02T16:20:49.821Z,36.1
2019-03-02T16:22:50.022Z,36.1
2019-03-02T16:24:50.290Z,37.8
2019-03-02T16:26:52.932Z,37.6
2019-03-02T16:28:50.774Z,34.9
2019-03-02T16:30:50.051Z,37.2
2019-03-02T16:32:51.811Z,37.2
2019-03-02T16:34:49.760Z,36.3
2019-03-02T16:36:50.101Z,39.1
2019-03-02T16:38:50.108Z,36.9
2019-03-02T16:40:50.228Z,37.9
2019-03-02T16:42:50.796Z,37.9
2019-03-02T16:44:50.180Z,37.0
2019-03-02T16:46:49.598Z,38.3
2019-03-02T16:48:49.777Z,36.3
2019-03-02T16:50:53.706Z,36.3
2019-03-02T16:52:49.740Z,34.7
2019-03-02T16:54:49.907Z,37.0
2019-03-02T16:56:49.727Z,36.6
2019-03-02T16:58:53.015Z,38.7
2019-03-02T17:00:49.983Z,38.7
2019-03-02T17:02:50.087Z,38.4
2019-03-02T17:04:51.218Z,37.7
2019-03-02T17:06:49.781Z,37.7
2019-03-02T17:08:49.930Z,39.0
2019-03-02T17:10:50.013Z,39.0
2019-03-02T17:12:49.993Z,41.6
2019-03-02T17:14:49.502Z,38.8
2019-03-02T17:16:49.810Z,37.4
2019-03-02T17:18:50.071Z,40.8
2019-03-02T17:20:50.331Z,40.8
2019-03-02T17:22:49.562Z,40.3
2019-03-02T17:24:49.684Z,38.0
2019-03-02T17:26:50.126Z,42.3
2019-03-02T17:28:49.753Z,39.6
2019-03-02T17:30:49.899Z,39.6
2019-03-02T17:32:50.941Z,41.0
2019-03-02T17:34:50.135Z,38.3
2019-03-02T17:36:49.606Z,38.3
2019-03-02T17:38:51.272Z,38.3
2019-03-02T17:40:49.640Z,37.9
2019-03-02T17:42:49.781Z,37.5
2019-03-02T17:44:49.859Z,37.7
2019-03-02T17:46:50.742Z,35.0
2019-03-02T17:48:49.909Z,35.0
2019-03-02T17:50:51.774Z,34.8
2019-03-02T17:52:50.309Z,36.1
2019-03-02T17:54:51.339Z,36.9
2019-03-02T17:56:49.468Z,36.9
2019-03-02T17:58:49.604Z,36.1
2019-03-02T18:00:53.146Z,35.2
2019-03-02T18:02:49.777Z,37.4
2019-03-02T18:04:50.190Z,34.6
2019-03-02T18:06:49.532Z,33.3
2019-03-02T18:08:50.072Z,33.3
2019-03-02T18:10:49.551Z,34.3
2019-03-02T18:12:49.777Z,34.7
2019-03-02T18:14:49.920Z,34.7
2019-03-02T18:16:50.335Z,33.4
2019-03-02T18:18:49.505Z,35.2
2019-03-02T18:20:52.739Z,31.2
2019-03-02T18:22:49.445Z,31.4
2019-03-02T18:24:49.732Z,33.4
2019-03-02T18:26:50.096Z,32.5
2019-03-02T18:28:50.063Z,32.5
2019-03-02T18:30:49.470Z,33.5
2019-03-02T18:32:49.624Z,34.2
2019-03-02T18:34:50.014Z,33.6
2019-03-02T18:36:53.059Z,32.2
2019-03-02T18:38:50.419Z,32.2
2019-03-02T18:40:49.566Z,32.4
2019-03-02T18:42:50.043Z,32.9
2019-03-02T18:44:50.292Z,32.9
2019-03-02T18:46:53.015Z,36.0
2019-03-02T18:48:50.147Z,34.3
2019-03-02T18:50:49.463Z,35.5
2019-03-02T18:52:49.752Z,38.1
2019-03-02T18:54:50.624Z,38.1
2019-03-02T18:56:49.984Z,39.3
2019-03-02T18:58:59.782Z,35.6
2019-03-02T19:00:50.394Z,39.4
2019-03-02T19:02:49.713Z,40.7
2019-03-02T19:04:50.177Z,40.8
2019-03-02T19:06:49.466Z,40.8
2019-03-02T19:08:51.168Z,39.5
2019-03-02T19:10:49.471Z,38.0
2019-03-02T19:12:49.668Z,40.5
2019-03-02T19:14:49.863Z,40.5
2019-03-02T19:16:50.180Z,41.1
2019-03-02T19:18:50.255Z,43.3
2019-03-02T19:20:49.544Z,45.3
2019-03-02T19:22:49.736Z,44.3
2019-03-02T19:24:49.929Z,46.8
2019-03-02T19:26:50.192Z,46.8
2019-03-02T19:28:50.367Z,42.3
2019-03-02T19:30:49.559Z,47.7
2019-03-02T19:32:49.818Z,45.4
2019-03-02T19:34:50.412Z,45.4
2019-03-02T19:36:49.826Z,46.1
2019-03-02T19:38:50.033Z,46.7
2019-03-02T19:40:50.114Z,47.3
2019-03-02T19:42:50.336Z,49.9
2019-03-02T19:44:49.560Z,49.9
2019-03-02T19:46:49.930Z,44.0
2019-03-02T19:48:50.094Z,42.5
2019-03-02T19:50:50.223Z,40.2
2019-03-02T19:52:49.465Z,38.1
2019-03-02T19:54:49.685Z,38.1
2019-03-02T19:56:49.903Z,40.0
2019-03-02T19:58:50.250Z,40.3
2019-03-02T20:00:50.413Z,38.1
2019-03-02T20:02:49.716Z,38.1
2019-03-02T20:04:50.188Z,35.7
2019-03-02T20:06:49.582Z,38.3
2019-03-02T20:08:49.837Z,37.1
2019-03-02T20:10:49.996Z,37.4
2019-03-02T20:12:50.135Z,37.4
2019-03-02T20:14:49.442Z,35.5
2019-03-02T20:16:49.881Z,36.9
2019-03-02T20:18:50.154Z,33.9
2019-03-02T20:20:50.337Z,35.5
2019-03-02T20:22:49.638Z,35.5
2019-03-02T20:24:49.782Z,35.2
2019-03-02T20:26:50.126Z,34.0
2019-03-02T20:28:50.216Z,34.3
2019-03-02T20:30:50.401Z,34.2
2019-03-02T20:32:49.665Z,34.0
2019-03-02T20:34:50.306Z,34.0
2019-03-02T20:36:49.580Z,31.7
2019-03-02T20:38:49.817Z,31.7
2019-03-02T20:40:50.046Z,29.6
2019-03-02T20:42:50.172Z,29.6
2019-03-02T20:44:50.270Z,29.2
2019-03-02T20:46:49.679Z,25.0
2019-03-02T20:48:49.861Z,27.7
2019-03-02T20:50:50.033Z,27.8
2019-03-02T20:52:50.313Z,27.8
2019-03-02T20:54:49.490Z,27.0
2019-03-02T20:56:49.811Z,24.9
2019-03-02T20:58:50.016Z,24.9
2019-03-02T21:00:50.213Z,28.0
2019-03-02T21:02:50.403Z,26.6
2019-03-02T21:04:49.850Z,25.6
2019-03-02T21:06:50.148Z,29.2
2019-03-02T21:08:50.306Z,25.4
2019-03-02T21:10:49.554Z,25.4
2019-03-02T21:12:49.780Z,24.3
2019-03-02T21:14:49.948Z,24.0
2019-03-02T21:16:50.389Z,26.5
2019-03-02T21:18:49.576Z,25.4
2019-03-02T21:20:49.631Z,25.4
2019-03-02T21:22:49.808Z,25.8
2019-03-02T21:24:50.058Z,23.2
2019-03-02T21:26:49.466Z,24.2
2019-03-02T21:28:49.626Z,23.6
2019-03-02T21:30:49.764Z,23.6
2019-03-02T21:32:49.956Z,23.2
2019-03-02T21:34:49.582Z,21.6
2019-03-02T21:36:49.935Z,25.0
2019-03-02T21:38:50.058Z,25.0
2019-03-02T21:40:50.295Z,25.0
2019-03-02T21:42:49.569Z,23.0
2019-03-02T21:44:49.723Z,23.5
2019-03-02T21:46:49.974Z,23.8
2019-03-02T21:48:50.140Z,23.8
2019-03-02T21:50:50.413Z,25.3
2019-03-02T21:52:49.555Z,20.6
2019-03-02T21:54:49.768Z,20.4
2019-03-02T21:56:50.009Z,22.6
2019-03-02T21:58:50.169Z,22.6
2019-03-02T22:00:50.258Z,20.8
2019-03-02T22:02:49.443Z,23.2
2019-03-02T22:04:50.050Z,21.2
2019-03-02T22:06:49.458Z,20.8
2019-03-02T22:08:49.631Z,20.8
2019-03-02T22:10:49.843Z,20.3
2019-03-02T22:12:50.061Z,21.7
2019-03-02T22:14:50.254Z,21.2
2019-03-02T22:16:49.530Z,21.1
2019-03-02T22:18:49.626Z,21.1
2019-03-02T22:20:49.850Z,20.8
2019-03-02T22:22:50.022Z,21.6
2019-03-02T22:24:50.318Z,18.2
2019-03-02T22:26:49.788Z,19.9
2019-03-02T22:28:49.975Z,19.9
2019-03-02T22:30:50.110Z,21.3
2019-03-02T22:32:50.314Z,18.8
2019-03-02T22:34:49.976Z,18.8
2019-03-02T22:36:50.356Z,18.1
2019-03-02T22:38:49.464Z,18.1
2019-03-02T22:40:49.719Z,17.0
2019-03-02T22:42:49.869Z,16.8
2019-03-02T22:44:50.165Z,16.1
2019-03-02T22:46:49.443Z,16.1
2019-03-02T22:48:49.617Z,19.3
2019-03-02T22:50:49.814Z,14.8
2019-03-02T22:52:50.068Z,15.9
2019-03-02T22:54:50.285Z,14.1
2019-03-02T22:56:49.710Z,14.1
2019-03-02T22:58:49.890Z,14.1
2019-03-02T23:00:50.080Z,12.1
2019-03-02T23:02:49.838Z,14.2
2019-03-02T23:04:50.351Z,12.9
2019-03-02T23:06:49.726Z,12.9
2019-03-02T23:08:49.857Z,12.6
2019-03-02T23:10:49.956Z,10.1
2019-03-02T23:12:50.264Z,13.4
2019-03-02T23:14:49.484Z,13.4
2019-03-02T23:16:49.765Z,12.2
2019-03-02T23:18:49.961Z,13.3
2019-03-02T23:20:50.101Z,15.4
2019-03-02T23:22:50.326Z,15.4
2019-03-02T23:24:49.456Z,13.2
2019-03-02T23:26:49.762Z,11.4
2019-03-02T23:28:49.973Z,11.2
2019-03-02T23:30:50.145Z,12.7
2019-03-02T23:32:50.268Z,12.7
2019-03-02T23:34:49.948Z,10.4
2019-03-02T23:36:50.220Z,11.0
2019-03-02T23:38:49.425Z,10.7
2019-03-02T23:40:49.576Z,14.0
2019-03-02T23:42:49.764Z,14.0
2019-03-02T23:44:49.996Z,9.9
2019-03-02T23:46:50.303Z,10.6
2019-03-02T23:48:49.466Z,7.8
2019-03-02T23:50:49.751Z,7.8
2019-03-02T23:52:49.907Z,9.6
2019-03-02T23:54:50.012Z,9.6
2019-03-02T23:56:50.423Z,9.2
2019-03-02T23:58:49.679Z,10.2
